createdAt,value
2022-09-17T00:01:31.473Z,11.89
2022-09-17T00:04:04.481Z,11.87
2022-09-17T00:06:36.071Z,11.85
2022-09-17T00:09:07.860Z,11.83
2022-09-17T00:11:38.938Z,11.83
2022-09-17T00:14:10.224Z,11.77
2022-09-17T00:16:41.712Z,11.77
2022-09-17T00:19:21.457Z,11.72
2022-09-17T00:21:51.565Z,11.71
2022-09-17T00:24:20.780Z,11.68
2022-09-17T00:26:49.652Z,11.70
2022-09-17T00:29:17.312Z,11.68
2022-09-17T00:31:46.831Z,11.65
2022-09-17T00:34:14.176Z,11.62
2022-09-17T00:36:41.730Z,11.61
2022-09-17T00:39:12.047Z,11.61
2022-09-17T00:41:40.262Z,11.61
2022-09-17T00:44:39.495Z,11.58
2022-09-17T00:47:35.352Z,11.56
2022-09-17T00:50:17.634Z,11.50
2022-09-17T00:52:51.691Z,11.52
2022-09-17T00:55:24.616Z,11.48
2022-09-17T00:57:56.509Z,11.49
2022-09-17T01:00:24.036Z,11.47
2022-09-17T01:02:54.357Z,11.47
2022-09-17T01:06:05.895Z,11.41
2022-09-17T01:08:50.277Z,11.38
2022-09-17T01:11:48.217Z,11.24
2022-09-17T01:14:52.352Z,11.18
2022-09-17T01:18:09.434Z,11.14
2022-09-17T01:21:21.792Z,11.12
2022-09-17T01:24:22.658Z,11.06
2022-09-17T01:27:27.521Z,11.04
2022-09-17T01:30:22.740Z,11.02
2022-09-17T01:33:21.522Z,11.04
2022-09-17T01:35:55.641Z,11.02
2022-09-17T01:38:39.488Z,11.07
2022-09-17T01:42:02.282Z,11.04
2022-09-17T01:44:40.722Z,11.01
2022-09-17T01:47:23.129Z,11.01
2022-09-17T01:50:03.149Z,10.99
2022-09-17T01:52:35.997Z,10.99
2022-09-17T01:55:11.485Z,10.98
2022-09-17T01:57:54.167Z,10.93
2022-09-17T02:00:22.554Z,10.83
2022-09-17T02:03:15.025Z,10.78
2022-09-17T02:05:54.370Z,10.78
2022-09-17T02:08:27.069Z,10.76
2022-09-17T02:11:11.162Z,10.72
2022-09-17T02:13:56.243Z,10.68
2022-09-17T02:16:34.122Z,10.63
2022-09-17T02:19:23.509Z,10.66
2022-09-17T02:22:23.869Z,10.60
2022-09-17T02:25:01.031Z,10.56
2022-09-17T02:28:03.700Z,10.55
2022-09-17T02:30:32.315Z,10.59
2022-09-17T02:33:04.968Z,10.55
2022-09-17T02:35:33.406Z,10.51
2022-09-17T02:38:01.327Z,10.56
2022-09-17T02:40:41.509Z,10.52
2022-09-17T02:43:23.985Z,10.50
2022-09-17T02:46:35.903Z,10.45
2022-09-17T02:49:50.196Z,10.39
2022-09-17T02:52:41.918Z,10.37
2022-09-17T02:55:26.921Z,10.27
2022-09-17T02:58:05.763Z,10.14
2022-09-17T03:00:34.150Z,10.15
2022-09-17T03:03:40.835Z,10.05
2022-09-17T03:06:08.499Z,10.09
2022-09-17T03:08:40.519Z,9.98
2022-09-17T03:11:10.383Z,9.99
2022-09-17T03:13:37.871Z,9.95
2022-09-17T03:16:07.237Z,9.93
2022-09-17T03:18:34.624Z,9.80
2022-09-17T03:21:02.227Z,9.85
2022-09-17T03:23:29.538Z,9.87
2022-09-17T03:25:56.813Z,9.83
2022-09-17T03:28:26.603Z,9.86
2022-09-17T03:30:54.408Z,9.88
2022-09-17T03:33:22.091Z,9.89
2022-09-17T03:35:49.553Z,9.86
2022-09-17T03:38:17.250Z,9.85
2022-09-17T03:40:44.478Z,9.88
2022-09-17T03:43:11.911Z,9.85
2022-09-17T03:45:39.098Z,9.80
2022-09-17T03:48:06.295Z,9.75
2022-09-17T03:50:33.839Z,9.74
2022-09-17T03:53:01.001Z,9.75
2022-09-17T03:55:28.230Z,9.77
2022-09-17T03:57:56.415Z,9.75
2022-09-17T04:00:25.464Z,9.74
2022-09-17T04:02:52.784Z,9.73
2022-09-17T04:05:20.314Z,9.68
2022-09-17T04:07:47.536Z,9.71
2022-09-17T04:10:14.848Z,9.67
2022-09-17T04:12:42.201Z,9.68
2022-09-17T04:15:10.007Z,9.72
2022-09-17T04:17:37.256Z,9.71
2022-09-17T04:20:06.540Z,9.78
2022-09-17T04:22:34.030Z,9.82
2022-09-17T04:25:01.359Z,9.77
2022-09-17T04:27:28.728Z,9.79
2022-09-17T04:29:55.881Z,9.86
2022-09-17T04:32:23.042Z,9.87
2022-09-17T04:34:50.466Z,9.92
2022-09-17T04:37:17.596Z,9.93
2022-09-17T04:39:44.750Z,10.02
2022-09-17T04:42:12.101Z,10.03
2022-09-17T04:44:39.256Z,10.06
2022-09-17T04:47:06.832Z,10.12
2022-09-17T04:49:34.265Z,10.22
2022-09-17T04:52:01.671Z,10.30
2022-09-17T04:54:28.871Z,10.32
2022-09-17T04:56:56.286Z,10.34
2022-09-17T04:59:23.840Z,10.37
2022-09-17T05:01:51.183Z,10.50
2022-09-17T05:04:18.855Z,10.61
2022-09-17T05:06:45.984Z,10.63
2022-09-17T05:09:14.127Z,10.68
2022-09-17T05:11:42.016Z,10.71
2022-09-17T05:14:09.466Z,10.87
2022-09-17T05:16:36.654Z,10.83
2022-09-17T05:19:04.291Z,10.91
2022-09-17T05:21:31.796Z,11.01
2022-09-17T05:23:59.067Z,11.04
2022-09-17T05:26:26.452Z,11.20
2022-09-17T05:28:53.791Z,11.28
2022-09-17T05:31:21.222Z,11.36
2022-09-17T05:33:48.577Z,11.33
2022-09-17T05:36:15.759Z,11.43
2022-09-17T05:38:43.193Z,11.46
2022-09-17T05:41:10.659Z,11.54
2022-09-17T05:43:37.801Z,11.63
2022-09-17T05:46:07.179Z,11.74
2022-09-17T05:48:34.649Z,11.78
2022-09-17T05:51:02.156Z,11.84
2022-09-17T05:53:29.313Z,12.07
2022-09-17T05:55:58.766Z,12.31
2022-09-17T05:58:27.178Z,12.36
2022-09-17T06:00:54.334Z,12.54
2022-09-17T06:03:24.832Z,12.61
2022-09-17T06:05:58.727Z,12.76
2022-09-17T06:08:29.000Z,13.03
2022-09-17T06:11:01.602Z,13.24
2022-09-17T06:13:29.886Z,13.32
2022-09-17T06:15:57.198Z,13.51
2022-09-17T06:18:24.463Z,13.64
2022-09-17T06:21:05.646Z,13.72
2022-09-17T06:23:35.405Z,13.75
2022-09-17T06:26:05.829Z,13.80
2022-09-17T06:28:35.765Z,13.78
2022-09-17T06:31:08.373Z,13.77
2022-09-17T06:33:36.555Z,13.82
2022-09-17T06:36:14.154Z,13.84
2022-09-17T06:38:42.778Z,13.82
2022-09-17T06:41:10.098Z,14.04
2022-09-17T06:43:37.362Z,14.22
2022-09-17T06:46:06.676Z,14.48
2022-09-17T06:48:35.933Z,14.46
2022-09-17T06:51:07.668Z,14.55
2022-09-17T06:53:38.205Z,14.69
2022-09-17T06:56:08.503Z,14.81
2022-09-17T06:58:37.648Z,14.65
2022-09-17T07:01:06.263Z,14.67
2022-09-17T07:03:34.800Z,14.76
2022-09-17T07:06:12.818Z,15.07
2022-09-17T07:08:40.097Z,15.51
2022-09-17T07:11:08.433Z,16.52
2022-09-17T07:13:36.219Z,17.14
2022-09-17T07:16:06.029Z,18.35
2022-09-17T07:18:34.004Z,20.30
2022-09-17T07:21:05.237Z,21.15
2022-09-17T07:23:35.751Z,23.77
2022-09-17T07:26:15.848Z,25.12
2022-09-17T07:28:44.154Z,23.57
2022-09-17T07:31:16.407Z,22.01
2022-09-17T07:33:45.008Z,20.60
2022-09-17T07:36:18.043Z,19.90
2022-09-17T07:38:45.798Z,19.90
2022-09-17T07:41:17.132Z,19.61
2022-09-17T07:43:45.317Z,19.55
2022-09-17T07:46:19.528Z,19.82
2022-09-17T07:48:48.716Z,20.37
2022-09-17T07:51:22.975Z,20.71
2022-09-17T07:53:56.247Z,21.25
2022-09-17T07:56:25.345Z,21.42
2022-09-17T07:58:53.112Z,21.39
2022-09-17T08:01:23.741Z,21.40
2022-09-17T08:03:54.072Z,21.32
2022-09-17T08:06:28.381Z,21.06
2022-09-17T08:08:57.606Z,21.35
2022-09-17T08:11:51.665Z,23.47
2022-09-17T08:14:16.619Z,24.24
2022-09-17T08:16:46.465Z,23.62
2022-09-17T08:19:13.813Z,22.92
2022-09-17T08:21:47.032Z,22.99
2022-09-17T08:24:14.397Z,22.61
2022-09-17T08:26:41.860Z,23.08
2022-09-17T08:29:10.571Z,23.27
2022-09-17T08:31:38.016Z,23.91
2022-09-17T08:34:09.954Z,23.19
2022-09-17T08:36:37.817Z,25.86
2022-09-17T08:39:05.278Z,26.52
2022-09-17T08:41:49.849Z,27.21
2022-09-17T08:44:25.647Z,29.28
2022-09-17T08:47:06.121Z,33.27
2022-09-17T08:49:44.035Z,34.12
2022-09-17T08:52:54.862Z,36.48
2022-09-17T08:55:40.380Z,35.42
2022-09-17T08:58:57.656Z,30.88
2022-09-17T09:01:39.763Z,27.71
2022-09-17T09:04:33.234Z,24.96
2022-09-17T09:07:20.137Z,22.59
2022-09-17T09:10:04.888Z,21.80
2022-09-17T09:12:37.284Z,20.83
2022-09-17T09:15:33.089Z,19.76
2022-09-17T09:18:18.060Z,19.17
2022-09-17T09:21:09.579Z,18.53
2022-09-17T09:23:56.925Z,18.12
2022-09-17T09:26:57.809Z,17.74
2022-09-17T09:29:50.420Z,17.62
2022-09-17T09:33:00.531Z,17.46
2022-09-17T09:35:32.728Z,17.62
2022-09-17T09:38:24.985Z,17.38
2022-09-17T09:41:03.983Z,17.65
2022-09-17T09:44:03.088Z,17.80
2022-09-17T09:46:49.095Z,17.76
2022-09-17T09:49:31.251Z,17.63
2022-09-17T09:52:48.948Z,17.71
2022-09-17T09:55:35.463Z,17.67
2022-09-17T09:58:40.015Z,17.51
2022-09-17T10:01:21.027Z,17.29
2022-09-17T10:03:52.757Z,16.99
2022-09-17T10:06:21.397Z,16.79
2022-09-17T10:08:57.355Z,16.50
2022-09-17T10:11:28.648Z,16.23
2022-09-17T10:14:33.673Z,16.25
2022-09-17T10:17:26.339Z,16.28
2022-09-17T10:20:06.136Z,16.26
2022-09-17T10:22:37.067Z,16.18
2022-09-17T10:25:18.681Z,16.34
2022-09-17T10:27:48.834Z,16.49
2022-09-17T10:30:19.154Z,16.54
2022-09-17T10:33:29.353Z,16.82
2022-09-17T10:36:11.633Z,17.05
2022-09-17T10:38:47.316Z,17.63
2022-09-17T10:41:25.070Z,18.68
2022-09-17T10:43:52.691Z,20.59
2022-09-17T10:46:34.183Z,21.72
2022-09-17T10:49:34.958Z,20.86
2022-09-17T10:52:14.894Z,20.05
2022-09-17T10:55:17.672Z,19.15
2022-09-17T10:58:07.484Z,18.36
2022-09-17T11:01:08.901Z,17.95
2022-09-17T11:04:19.435Z,17.58
2022-09-17T11:07:04.951Z,17.34
2022-09-17T11:10:22.233Z,17.14
2022-09-17T11:12:54.974Z,17.05
2022-09-17T11:15:52.897Z,16.78
2022-09-17T11:18:39.853Z,16.81
2022-09-17T11:21:31.723Z,16.79
2022-09-17T11:24:05.015Z,16.86
2022-09-17T11:27:10.061Z,16.82
2022-09-17T11:30:14.837Z,16.81
2022-09-17T11:33:08.268Z,16.70
2022-09-17T11:35:52.045Z,16.62
2022-09-17T11:38:45.377Z,16.63
2022-09-17T11:41:31.717Z,16.61
2022-09-17T11:44:31.694Z,16.76
2022-09-17T11:47:29.644Z,16.86
2022-09-17T11:50:10.224Z,16.94
2022-09-17T11:52:51.251Z,16.88
2022-09-17T11:55:44.598Z,16.88
2022-09-17T11:58:41.736Z,16.78
2022-09-17T12:01:25.800Z,16.63
2022-09-17T12:04:07.169Z,16.54
2022-09-17T12:07:00.604Z,16.51
2022-09-17T12:09:36.781Z,16.54
2022-09-17T12:12:44.942Z,16.42
2022-09-17T12:15:22.270Z,16.13
2022-09-17T12:18:32.317Z,16.08
2022-09-17T12:21:05.268Z,16.19
2022-09-17T12:23:43.211Z,16.33
2022-09-17T12:26:25.733Z,16.40
2022-09-17T12:29:43.303Z,16.45
2022-09-17T12:32:31.816Z,16.44
2022-09-17T12:36:03.136Z,16.51
2022-09-17T12:39:02.211Z,16.56
2022-09-17T12:42:18.044Z,16.94
2022-09-17T12:45:16.450Z,17.27
2022-09-17T12:48:25.672Z,17.64
2022-09-17T12:51:27.369Z,17.44
2022-09-17T12:54:26.401Z,17.48
2022-09-17T12:57:14.004Z,17.85
2022-09-17T13:00:06.864Z,18.00
2022-09-17T13:03:02.614Z,17.83
2022-09-17T13:05:55.103Z,17.65
2022-09-17T13:09:00.442Z,17.68
2022-09-17T13:11:57.944Z,17.70
2022-09-17T13:14:49.926Z,17.67
2022-09-17T13:18:12.781Z,17.54
2022-09-17T13:21:02.001Z,17.42
2022-09-17T13:23:52.321Z,17.53
2022-09-17T13:26:32.861Z,17.79
2022-09-17T13:29:00.422Z,18.06
2022-09-17T13:31:40.104Z,18.61
2022-09-17T13:34:19.230Z,18.94
2022-09-17T13:36:53.914Z,19.09
2022-09-17T13:39:40.264Z,19.12
2022-09-17T13:42:22.500Z,18.97
2022-09-17T13:45:06.114Z,19.15
2022-09-17T13:47:48.927Z,19.13
2022-09-17T13:50:38.491Z,19.03
2022-09-17T13:53:25.253Z,19.22
2022-09-17T13:55:54.948Z,20.10
2022-09-17T13:58:29.206Z,21.36
2022-09-17T14:01:05.619Z,23.04
2022-09-17T14:03:37.689Z,24.02
2022-09-17T14:06:11.331Z,25.68
2022-09-17T14:08:45.162Z,26.47
2022-09-17T14:11:24.338Z,25.97
2022-09-17T14:14:41.502Z,28.13
2022-09-17T14:17:09.264Z,29.31
2022-09-17T14:19:51.394Z,28.24
2022-09-17T14:22:26.974Z,28.68
2022-09-17T14:24:55.597Z,27.82
2022-09-17T14:27:42.558Z,25.96
2022-09-17T14:30:21.688Z,24.15
2022-09-17T14:33:01.184Z,23.09
2022-09-17T14:35:44.635Z,21.99
2022-09-17T14:38:27.181Z,20.80
2022-09-17T14:41:11.662Z,19.89
2022-09-17T14:44:01.376Z,19.38
2022-09-17T14:46:31.506Z,18.92
2022-09-17T14:49:27.239Z,18.57
2022-09-17T14:51:57.526Z,18.30
2022-09-17T14:54:35.997Z,18.02
2022-09-17T14:57:27.844Z,17.80
2022-09-17T15:00:00.354Z,17.59
2022-09-17T15:02:41.979Z,17.45
2022-09-17T15:05:35.466Z,17.20
2022-09-17T15:08:11.960Z,17.08
2022-09-17T15:11:02.763Z,16.95
2022-09-17T15:13:45.607Z,16.86
2022-09-17T15:16:28.276Z,16.77
2022-09-17T15:18:59.494Z,16.71
2022-09-17T15:21:46.674Z,16.61
2022-09-17T15:24:53.284Z,16.50
2022-09-17T15:27:31.719Z,16.42
2022-09-17T15:30:22.482Z,16.28
2022-09-17T15:33:01.136Z,16.16
2022-09-17T15:35:34.114Z,16.06
2022-09-17T15:38:24.803Z,15.95
2022-09-17T15:40:53.264Z,15.90
2022-09-17T15:43:34.721Z,15.74
2022-09-17T15:46:29.780Z,15.63
2022-09-17T15:49:02.928Z,15.55
2022-09-17T15:51:37.290Z,15.47
2022-09-17T15:54:06.977Z,15.40
2022-09-17T15:56:42.530Z,15.39
2022-09-17T15:59:31.239Z,15.37
2022-09-17T16:02:02.132Z,15.38
2022-09-17T16:04:35.174Z,15.38
2022-09-17T16:07:11.572Z,15.36
2022-09-17T16:09:53.522Z,15.38
2022-09-17T16:12:28.859Z,15.39
2022-09-17T16:15:01.484Z,15.39
2022-09-17T16:17:46.148Z,15.34
2022-09-17T16:20:24.049Z,15.36
2022-09-17T16:22:54.096Z,15.37
2022-09-17T16:25:28.063Z,15.29
2022-09-17T16:28:12.485Z,15.18
2022-09-17T16:30:45.872Z,15.16
2022-09-17T16:33:17.979Z,15.12
2022-09-17T16:35:45.510Z,15.03
2022-09-17T16:38:13.233Z,14.95
2022-09-17T16:40:49.317Z,14.85
2022-09-17T16:43:16.701Z,14.74
2022-09-17T16:45:58.482Z,14.71
2022-09-17T16:48:25.758Z,14.60
2022-09-17T16:50:54.962Z,14.55
2022-09-17T16:53:22.440Z,14.53
2022-09-17T16:55:49.685Z,14.46
2022-09-17T16:58:17.203Z,14.39
2022-09-17T17:00:45.005Z,14.38
2022-09-17T17:03:14.066Z,14.33
2022-09-17T17:05:41.882Z,14.32
2022-09-17T17:08:10.666Z,14.26
2022-09-17T17:10:39.221Z,14.27
2022-09-17T17:13:06.805Z,14.26
2022-09-17T17:15:35.235Z,14.22
2022-09-17T17:18:02.421Z,14.21
2022-09-17T17:20:30.945Z,14.19
2022-09-17T17:22:58.265Z,14.18
2022-09-17T17:25:27.162Z,14.13
2022-09-17T17:27:54.600Z,14.11
2022-09-17T17:30:22.192Z,14.11
2022-09-17T17:32:52.705Z,14.11
2022-09-17T17:35:20.741Z,14.11
2022-09-17T17:37:48.679Z,14.14
2022-09-17T17:40:16.044Z,14.13
2022-09-17T17:42:44.361Z,14.12
2022-09-17T17:45:11.997Z,14.16
2022-09-17T17:47:39.258Z,14.11
2022-09-17T17:50:07.769Z,14.05
2022-09-17T17:52:36.550Z,14.07
2022-09-17T17:55:04.300Z,14.03
2022-09-17T17:57:31.710Z,14.06
2022-09-17T17:59:58.974Z,14.01
2022-09-17T18:02:26.403Z,13.97
2022-09-17T18:04:53.891Z,13.92
2022-09-17T18:07:21.163Z,13.89
2022-09-17T18:09:48.383Z,13.87
2022-09-17T18:12:15.885Z,13.85
2022-09-17T18:14:43.135Z,13.86
2022-09-17T18:17:10.369Z,13.84
2022-09-17T18:19:37.793Z,13.82
2022-09-17T18:22:05.115Z,13.83
2022-09-17T18:24:32.333Z,13.74
2022-09-17T18:26:59.714Z,13.71
2022-09-17T18:29:26.869Z,13.70
2022-09-17T18:31:54.801Z,13.66
2022-09-17T18:34:22.351Z,13.64
2022-09-17T18:36:51.316Z,13.64
2022-09-17T18:42:09.321Z,13.59
2022-09-17T18:44:36.780Z,13.60
2022-09-17T18:47:04.091Z,13.59
2022-09-17T18:49:31.537Z,13.55
2022-09-17T18:51:59.117Z,13.53
2022-09-17T18:54:26.324Z,13.56
2022-09-17T18:56:53.861Z,13.56
2022-09-17T18:59:21.009Z,13.54
2022-09-17T19:01:49.152Z,13.57
2022-09-17T19:04:17.767Z,13.59
2022-09-17T19:06:48.215Z,13.55
2022-09-17T19:09:15.557Z,13.56
2022-09-17T19:11:43.015Z,13.51
2022-09-17T19:14:10.870Z,13.46
2022-09-17T19:16:38.143Z,13.41
2022-09-17T19:19:05.683Z,13.42
2022-09-17T19:21:32.933Z,13.38
2022-09-17T19:24:00.238Z,13.38
2022-09-17T19:26:27.952Z,13.34
2022-09-17T19:28:58.352Z,13.28
2022-09-17T19:31:27.044Z,13.25
2022-09-17T19:33:56.779Z,13.19
2022-09-17T19:36:24.378Z,13.16
2022-09-17T19:38:51.605Z,13.13
2022-09-17T19:41:24.950Z,13.07
2022-09-17T19:43:57.403Z,13.03
2022-09-17T19:46:26.660Z,13.02
2022-09-17T19:48:57.279Z,12.92
2022-09-17T19:51:27.006Z,12.88
2022-09-17T19:53:54.456Z,12.82
2022-09-17T19:56:25.391Z,12.85
2022-09-17T19:58:53.297Z,12.86
2022-09-17T20:01:21.622Z,12.92
2022-09-17T20:03:50.394Z,12.89
2022-09-17T20:06:20.796Z,12.84
2022-09-17T20:08:51.865Z,12.83
2022-09-17T20:11:23.652Z,12.83
2022-09-17T20:14:08.797Z,12.82
2022-09-17T20:16:39.251Z,12.88
2022-09-17T20:19:08.377Z,12.79
2022-09-17T20:21:38.844Z,12.80
2022-09-17T20:24:07.899Z,12.69
2022-09-17T20:26:36.115Z,12.68
2022-09-17T20:29:04.538Z,12.68
2022-09-17T20:31:32.877Z,12.64
2022-09-17T20:34:03.152Z,12.59
2022-09-17T20:36:35.502Z,12.64
2022-09-17T20:39:17.939Z,12.55
2022-09-17T20:41:47.015Z,12.52
2022-09-17T20:44:14.971Z,12.51
2022-09-17T20:46:43.335Z,12.47
2022-09-17T20:49:10.624Z,12.48
2022-09-17T20:51:38.127Z,12.52
2022-09-17T20:54:07.681Z,12.42
2022-09-17T20:56:35.879Z,12.46
2022-09-17T20:59:15.296Z,12.39
2022-09-17T21:01:47.432Z,12.37
2022-09-17T21:04:19.731Z,12.31
2022-09-17T21:06:51.609Z,12.33
2022-09-17T21:09:19.302Z,12.31
2022-09-17T21:11:49.204Z,12.30
2022-09-17T21:14:18.360Z,12.26
2022-09-17T21:16:49.056Z,12.30
2022-09-17T21:19:16.800Z,12.32
2022-09-17T21:21:44.825Z,12.25
2022-09-17T21:24:12.646Z,12.20
2022-09-17T21:26:39.938Z,12.11
2022-09-17T21:29:07.736Z,12.14
2022-09-17T21:31:37.805Z,12.23
2022-09-17T21:34:10.402Z,12.20
2022-09-17T21:36:40.023Z,12.14
2022-09-17T21:39:14.655Z,12.11
2022-09-17T21:41:48.198Z,12.05
2022-09-17T21:44:15.979Z,12.04
2022-09-17T21:46:43.955Z,12.07
2022-09-17T21:49:13.635Z,12.08
2022-09-17T21:51:43.938Z,12.05
2022-09-17T21:54:15.950Z,12.08
2022-09-17T21:56:45.723Z,12.07
2022-09-17T21:59:16.369Z,12.03
2022-09-17T22:01:47.211Z,12.03
2022-09-17T22:04:21.438Z,12.04
2022-09-17T22:06:50.137Z,12.01
2022-09-17T22:09:25.220Z,12.00
2022-09-17T22:11:53.818Z,11.93
2022-09-17T22:14:25.306Z,11.96
2022-09-17T22:16:57.143Z,11.90
2022-09-17T22:19:26.045Z,11.89
2022-09-17T22:21:55.769Z,11.90
2022-09-17T22:24:24.310Z,11.91
2022-09-17T22:26:57.669Z,11.93
2022-09-17T22:29:27.544Z,11.91
2022-09-17T22:31:55.216Z,11.94
2022-09-17T22:34:23.439Z,11.93
2022-09-17T22:36:51.025Z,11.90
2022-09-17T22:39:21.767Z,11.84
2022-09-17T22:41:50.627Z,11.90
2022-09-17T22:44:20.065Z,11.85
2022-09-17T22:46:50.709Z,11.86
2022-09-17T22:49:19.303Z,11.84
2022-09-17T22:51:47.325Z,11.81
2022-09-17T22:54:17.618Z,11.79
2022-09-17T22:56:47.162Z,11.79
2022-09-17T22:59:14.777Z,11.77
2022-09-17T23:01:42.465Z,11.76
2022-09-17T23:04:10.419Z,11.78
2022-09-17T23:06:42.205Z,11.79
2022-09-17T23:09:12.037Z,11.79
2022-09-17T23:11:40.627Z,11.81
2022-09-17T23:14:12.514Z,11.80
2022-09-17T23:16:44.493Z,11.84
2022-09-17T23:19:14.386Z,11.79
2022-09-17T23:21:43.159Z,11.83
2022-09-17T23:24:17.272Z,11.82
2022-09-17T23:26:45.027Z,11.77
2022-09-17T23:29:12.411Z,11.82
2022-09-17T23:31:40.582Z,11.82
2022-09-17T23:34:09.945Z,11.83
2022-09-17T23:36:39.961Z,11.77
2022-09-17T23:39:09.318Z,11.81
2022-09-17T23:41:43.434Z,11.75
2022-09-17T23:44:15.361Z,11.78
2022-09-17T23:46:45.710Z,11.78
2022-09-17T23:49:14.776Z,11.79
2022-09-17T23:51:42.722Z,11.77
2022-09-17T23:54:11.319Z,11.77
2022-09-17T23:56:38.691Z,11.74
2022-09-17T23:59:07.467Z,11.75
